Main page
METAR-TAF:

METAR-TAF

Airports :

Caen, France

Caen – Carpiquet Airport

latitude: 49-11N, longitude: 000-27W, elevation: 78 m

Current weather observation

The report was made 19 minutes ago, at 07:00 UTC
Wind 11 kt from the East/Southeast
Temperature 19°C
Humidity 68%
Pressure 1016 hPa
Visibility 10 km or more
no clouds below 1500 m and no cumulonimbus

METAR: LFRK 260700Z AUTO 11011KT CAVOK 19/13 Q1016 NOSIG

Time: 09:19 (07:19 UTC)

Forecast

The report was made 2 hours and 19 minutes ago, at 05:00 UTC
Forecast valid from 26 at 06 UTC to 26 at 15 UTC
Wind 10 kt from the East/Southeast
Visibility 10 km or more
no clouds below 1500 m and no cumulonimbus

TAF: LFRK 260500Z 2606/2615 11010KT CAVOK

Weather observations and forecasts of more than 4000 airports (METAR and TAF reports).

The available stations are represented by yellow and red dots on the map.

Hover mouse over dot to see the name of the station.

Then click to see weather observations and forecasts.

To change the map : click on the green buttons with a black cross to zoom in, on the green button with a dash to zoom out, or on the green arrows for adjacent maps.


METAR-TAF: